Time;durP1;ratioP1;P1;durP2;ratioP2;P2;SDS_P1;SDS_P2;PMS_P1;PMS_P2;Temp;Humidity;BMP_temperature;BMP_pressure;BME280_temperature;BME280_humidity;BME280_pressure;Samples;Min_cycle;Max_cycle;Signal;HPM_P1;HPM_P2
2021/06/29 00:02:13;;;;;;;13.30;4.53;;;;;;;26.64;42.06;100084.88;4956750;29;20035;-73
2021/06/29 00:04:39;;;;;;;22.38;5.28;;;;;;;26.56;42.59;100080.75;4957248;29;20031;-74
2021/06/29 00:07:04;;;;;;;11.85;4.40;;;;;;;26.34;43.81;100077.22;4940765;29;20034;-74
2021/06/29 00:09:30;;;;;;;14.07;5.53;;;;;;;26.21;44.08;100085.94;4957275;29;20031;-73
2021/06/29 00:11:57;;;;;;;24.50;6.25;;;;;;;26.15;44.50;100089.84;4956718;29;20474;-75
2021/06/29 00:14:23;;;;;;;18.08;4.82;;;;;;;26.04;45.29;100091.09;4956521;29;20074;-75
2021/06/29 00:16:49;;;;;;;17.17;4.93;;;;;;;25.97;44.82;100091.41;4940954;29;20058;-72
2021/06/29 00:19:14;;;;;;;20.58;6.07;;;;;;;25.85;45.40;100084.59;4940639;29;20031;-74
2021/06/29 00:21:40;;;;;;;17.67;6.07;;;;;;;25.90;45.61;100102.34;4957062;29;20027;-74
2021/06/29 00:24:06;;;;;;;20.33;5.40;;;;;;;25.55;47.06;100086.19;4956732;29;20486;-72
2021/06/29 00:26:32;;;;;;;10.52;5.03;;;;;;;25.51;47.77;100094.06;4956296;29;20042;-75
2021/06/29 00:28:58;;;;;;;18.73;5.50;;;;;;;25.29;48.56;100094.13;4956329;29;20031;-73
2021/06/29 00:31:24;;;;;;;13.68;5.45;;;;;;;25.36;48.60;100092.28;4956286;29;20027;-74
2021/06/29 00:33:50;;;;;;;14.15;5.25;;;;;;;25.47;48.37;100092.66;4956303;29;20027;-73
2021/06/29 00:36:16;;;;;;;15.57;5.80;;;;;;;25.35;48.12;100080.06;4956315;29;20174;-73
2021/06/29 00:38:44;;;;;;;16.63;5.78;;;;;;;25.04;48.84;100045.88;4956728;29;20454;-74
2021/06/29 00:41:10;;;;;;;13.70;5.35;;;;;;;25.19;49.35;100086.00;4940395;29;20031;-74
2021/06/29 00:43:35;;;;;;;14.57;5.10;;;;;;;25.18;49.73;100081.56;4956159;29;20027;-74
2021/06/29 00:46:01;;;;;;;17.98;5.13;;;;;;;25.16;50.01;100089.78;4955950;29;20097;-73
2021/06/29 00:48:27;;;;;;;17.35;6.43;;;;;;;25.21;49.92;100089.97;4940075;29;20066;-73
2021/06/29 00:50:52;;;;;;;19.58;5.55;;;;;;;25.06;49.94;100086.88;4939961;29;20069;-74
2021/06/29 00:53:18;;;;;;;16.10;5.63;;;;;;;25.05;49.40;100085.25;4955869;29;20059;-73
2021/06/29 00:55:46;;;;;;;16.05;5.53;;;;;;;25.05;49.64;100085.25;4939744;29;20047;-73
2021/06/29 00:58:13;;;;;;;19.83;5.10;;;;;;;25.05;50.03;100078.78;4940367;29;20058;-74
2021/06/29 01:00:41;;;;;;;19.05;6.18;;;;;;;25.01;49.94;100084.59;4940035;29;20060;-74
2021/06/29 01:03:11;;;;;;;13.60;4.32;;;;;;;25.01;50.30;100067.53;4956300;29;20023;-74
2021/06/29 01:05:36;;;;;;;20.13;5.45;;;;;;;24.91;51.30;100074.41;4939774;29;20030;-73
2021/06/29 01:08:02;;;;;;;13.30;5.28;;;;;;;25.00;51.07;100071.63;4956046;29;20359;-75
2021/06/29 01:10:28;;;;;;;14.80;5.10;;;;;;;24.93;51.84;100069.06;4955370;28;20467;-75
2021/06/29 01:12:56;;;;;;;13.27;5.07;;;;;;;24.95;52.08;100069.38;4955949;29;20027;-73
2021/06/29 01:15:23;;;;;;;13.25;4.90;;;;;;;24.97;52.27;100072.56;4955361;29;20046;-73
2021/06/29 01:17:51;;;;;;;13.52;4.22;;;;;;;25.04;52.46;100063.75;4956891;29;20035;-73
2021/06/29 01:20:22;;;;;;;13.07;5.93;;;;;;;25.07;53.14;100068.53;4955332;29;20042;-72
2021/06/29 01:22:50;;;;;;;17.33;5.90;;;;;;;25.04;53.47;100071.50;4955261;29;20099;-74
2021/06/29 01:25:16;;;;;;;16.48;4.88;;;;;;;25.06;54.04;100060.47;4955130;29;20027;-74
2021/06/29 01:32:48;;;;;;;16.77;4.43;;;;;;;24.86;55.17;100038.03;4956619;29;20390;-74
2021/06/29 01:35:15;;;;;;;24.23;6.80;;;;;;;24.70;55.63;100046.75;4954759;29;20117;-74
2021/06/29 01:37:41;;;;;;;14.23;5.45;;;;;;;24.77;55.79;100043.66;4955052;29;20027;-73
2021/06/29 01:42:36;;;;;;;16.92;4.53;;;;;;;24.51;56.79;100037.31;4956482;29;20474;-73
2021/06/29 01:45:02;;;;;;;14.90;4.38;;;;;;;24.51;56.42;100037.31;4938670;29;20042;-74
2021/06/29 01:47:35;;;;;;;12.57;5.28;;;;;;;24.53;56.32;100032.75;4954823;29;20027;-73
2021/06/29 01:50:14;;;;;;;12.07;5.00;;;;;;;24.60;55.80;100026.00;4954708;29;20031;-73
2021/06/29 01:52:40;;;;;;;18.98;5.75;;;;;;;24.76;55.28;100025.78;4938669;29;20032;-74
2021/06/29 01:55:06;;;;;;;16.27;4.88;;;;;;;24.80;55.19;100019.97;4955993;29;20059;-73
2021/06/29 01:57:37;;;;;;;12.55;5.32;;;;;;;24.88;55.32;100024.13;4954396;29;20129;-74
2021/06/29 02:00:10;;;;;;;12.60;4.60;;;;;;;24.74;55.52;100021.84;4954762;29;20035;-73
2021/06/29 02:02:36;;;;;;;12.93;4.63;;;;;;;24.80;55.01;100022.81;4956345;29;20459;-74
2021/06/29 02:05:02;;;;;;;18.25;4.88;;;;;;;24.86;53.72;100014.47;4938444;29;20038;-73
2021/06/29 02:07:28;;;;;;;12.40;5.05;;;;;;;24.85;53.11;100024.25;4954358;29;20137;-73
2021/06/29 02:09:53;;;;;;;13.15;4.32;;;;;;;24.75;52.61;100031.94;4954838;29;20035;-74
2021/06/29 02:12:38;;;;;;;13.32;4.05;;;;;;;24.70;52.54;100024.00;4941060;29;20122;-73
2021/06/29 02:15:05;;;;;;;17.02;4.85;;;;;;;24.66;52.16;100015.63;4954537;29;20491;-75
2021/06/29 02:17:30;;;;;;;14.80;4.28;;;;;;;24.70;52.60;100012.63;4955486;29;20038;-74
2021/06/29 02:19:56;;;;;;;10.13;3.90;;;;;;;24.70;52.55;100013.41;4954934;29;20451;-74
2021/06/29 02:22:22;;;;;;;12.73;4.15;;;;;;;24.82;52.78;100003.22;4953699;28;20050;-73
2021/06/29 02:24:47;;;;;;;12.73;4.10;;;;;;;24.83;52.28;99994.22;4954275;29;20035;-73
2021/06/29 02:27:13;;;;;;;17.45;5.22;;;;;;;24.87;52.13;99998.97;4954135;29;20031;-73
2021/06/29 02:29:40;;;;;;;12.02;4.43;;;;;;;24.93;51.99;99997.09;4937902;29;20043;-74
2021/06/29 02:32:06;;;;;;;15.85;4.57;;;;;;;24.79;52.10;99995.63;4954030;29;20031;-72
2021/06/29 02:34:31;;;;;;;18.90;5.10;;;;;;;24.61;52.58;99992.66;4955045;29;20027;-74
2021/06/29 02:36:57;;;;;;;13.95;4.28;;;;;;;24.49;53.20;100000.78;4953978;29;20061;-73
2021/06/29 02:39:23;;;;;;;13.35;4.80;;;;;;;24.35;53.78;99991.97;4953881;29;20039;-73
2021/06/29 02:41:48;;;;;;;11.35;5.28;;;;;;;24.32;54.44;99993.69;4937939;29;20100;-73
2021/06/29 02:44:14;;;;;;;14.90;4.72;;;;;;;24.47;54.42;99972.03;4953804;29;20031;-74
2021/06/29 02:46:40;;;;;;;12.50;5.70;;;;;;;24.42;54.78;99975.47;4953803;29;20033;-73
2021/06/29 02:49:06;;;;;;;11.05;4.85;;;;;;;24.34;55.08;99968.41;4937827;29;20383;-74
2021/06/29 02:51:32;;;;;;;15.68;5.40;;;;;;;24.48;54.73;99965.09;4953794;29;20135;-74
2021/06/29 02:53:57;;;;;;;17.52;5.95;;;;;;;24.50;54.98;99964.59;4938013;29;20038;-75
2021/06/29 02:56:39;;;;;;;14.02;5.10;;;;;;;24.37;55.56;99964.69;4953513;29;20059;-73
2021/06/29 02:59:14;;;;;;;20.63;5.78;;;;;;;24.46;55.40;99973.28;4953632;29;20047;-73
2021/06/29 03:01:40;;;;;;;13.45;5.30;;;;;;;24.38;56.03;99969.13;4937858;29;20048;-73
2021/06/29 03:04:06;;;;;;;14.60;5.25;;;;;;;24.46;55.42;99969.66;4953917;29;20028;-75
2021/06/29 03:06:32;;;;;;;14.48;4.50;;;;;;;24.54;55.08;99977.44;4953572;29;20034;-72
2021/06/29 03:08:59;;;;;;;13.65;4.47;;;;;;;24.55;55.48;99969.69;4953872;29;20035;-74
2021/06/29 03:11:25;;;;;;;21.55;5.18;;;;;;;24.53;55.89;99969.38;4954283;29;20050;-74
2021/06/29 03:13:50;;;;;;;11.65;4.82;;;;;;;24.58;55.52;99977.31;4954014;29;20031;-73
2021/06/29 03:16:16;;;;;;;11.73;4.63;;;;;;;24.61;54.83;99984.94;4953968;29;20122;-73
2021/06/29 03:18:42;;;;;;;13.98;5.05;;;;;;;24.62;54.90;99980.81;4953451;29;20618;-73
2021/06/29 03:21:07;;;;;;;15.13;4.95;;;;;;;24.77;54.62;99981.09;4953744;29;20027;-73
2021/06/29 03:23:37;;;;;;;10.32;4.40;;;;;;;24.70;54.88;99984.19;4953523;29;20031;-75
2021/06/29 03:26:03;;;;;;;17.25;5.22;;;;;;;24.59;55.47;99995.16;4954028;29;20027;-75
2021/06/29 03:28:29;;;;;;;20.58;5.95;;;;;;;24.60;55.25;99986.16;4937867;29;20350;-72
2021/06/29 03:30:55;;;;;;;11.73;4.93;;;;;;;24.69;55.17;99985.44;4937609;29;20039;-74
2021/06/29 03:33:21;;;;;;;18.90;6.55;;;;;;;24.59;55.54;99984.59;4954743;28;20442;-73
2021/06/29 03:35:46;;;;;;;20.15;8.98;;;;;;;24.60;55.73;99985.38;4957552;29;20028;-72
2021/06/29 03:38:12;;;;;;;16.02;8.63;;;;;;;24.59;55.32;99981.75;4957531;29;20062;-73
2021/06/29 03:40:38;;;;;;;15.30;11.48;;;;;;;24.56;55.51;99994.84;4959017;29;20396;-72
2021/06/29 03:43:04;;;;;;;14.18;7.05;;;;;;;24.70;54.91;100007.72;4957456;29;20066;-72
2021/06/29 03:45:32;;;;;;;15.07;5.03;;;;;;;24.63;55.19;100012.91;4957791;29;20470;-73
2021/06/29 03:47:58;;;;;;;26.80;5.38;;;;;;;24.58;55.31;100022.81;4957092;29;20098;-73
2021/06/29 03:50:26;;;;;;;15.82;6.95;;;;;;;24.61;55.08;100021.91;4957535;29;20103;-73
2021/06/29 03:52:53;;;;;;;16.20;4.95;;;;;;;24.62;54.54;100022.69;4957191;29;20386;-73
2021/06/29 03:55:18;;;;;;;13.45;5.38;;;;;;;24.60;55.16;100030.88;4958338;29;20062;-73
2021/06/29 03:57:44;;;;;;;15.88;4.80;;;;;;;24.53;54.51;100032.75;4940410;29;20083;-73
2021/06/29 04:00:11;;;;;;;13.88;4.20;;;;;;;24.50;54.73;100038.56;4956919;29;20034;-72
2021/06/29 04:02:37;;;;;;;11.55;4.03;;;;;;;24.68;53.95;100033.00;4940836;29;20031;-73
2021/06/29 04:05:05;;;;;;;12.13;4.15;;;;;;;24.97;53.41;100035.56;4957270;29;20086;-73
2021/06/29 04:07:31;;;;;;;14.13;4.57;;;;;;;25.33;52.86;100049.22;4958057;29;20106;-73
2021/06/29 04:09:56;;;;;;;14.88;4.43;;;;;;;25.68;50.37;100059.66;4956541;29;20134;-73
2021/06/29 04:12:22;;;;;;;16.27;4.45;;;;;;;25.93;49.57;100050.06;4940767;29;20122;-74
2021/06/29 04:14:48;;;;;;;8.27;3.63;;;;;;;26.22;49.14;100058.22;4956935;29;20356;-74
2021/06/29 04:17:13;;;;;;;13.32;4.95;;;;;;;26.49;48.13;100052.53;4956420;29;20035;-73
2021/06/29 04:19:40;;;;;;;17.92;4.28;;;;;;;26.85;47.35;100063.13;4956315;29;20031;-72
2021/06/29 04:22:09;;;;;;;21.20;5.25;;;;;;;27.14;47.22;100067.53;4940646;29;20095;-73
2021/06/29 04:24:35;;;;;;;11.63;4.22;;;;;;;27.43;46.47;100061.22;4956660;29;20031;-73
2021/06/29 04:27:02;;;;;;;16.23;4.25;;;;;;;27.64;46.16;100054.47;4940297;29;20038;-74
2021/06/29 04:29:27;;;;;;;13.30;4.38;;;;;;;27.85;45.41;100051.84;4956586;29;20038;-72
2021/06/29 04:31:53;;;;;;;15.98;4.68;;;;;;;28.14;45.13;100054.84;4940201;29;20032;-73
2021/06/29 04:34:19;;;;;;;13.10;4.53;;;;;;;28.37;44.56;100058.97;4956143;29;20122;-73
2021/06/29 04:36:48;;;;;;;17.13;4.45;;;;;;;28.69;44.58;100054.41;4956092;29;20130;-74
2021/06/29 04:39:13;;;;;;;10.52;4.82;;;;;;;28.94;43.94;100070.28;4956516;29;20046;-73
2021/06/29 04:41:39;;;;;;;10.70;4.65;;;;;;;29.27;43.17;100065.63;4956306;29;20043;-74
2021/06/29 04:44:05;;;;;;;9.18;4.60;;;;;;;29.19;43.83;100071.75;4955511;28;20489;-73
2021/06/29 04:46:31;;;;;;;15.77;4.60;;;;;;;29.17;44.11;100080.03;4939486;29;20118;-74
2021/06/29 04:48:58;;;;;;;11.55;4.25;;;;;;;28.88;44.69;100071.44;4956322;29;20110;-73
2021/06/29 04:51:25;;;;;;;11.93;4.88;;;;;;;28.42;45.97;100083.28;4955780;29;20498;-73
2021/06/29 04:53:51;;;;;;;13.55;4.65;;;;;;;28.34;46.64;100082.09;4939896;29;20023;-73
2021/06/29 04:56:17;;;;;;;15.85;5.15;;;;;;;28.68;45.79;100090.06;4939530;29;20058;-74
2021/06/29 04:58:50;;;;;;;14.38;4.60;;;;;;;29.05;45.51;100089.72;4955968;29;20114;-73
2021/06/29 05:01:16;;;;;;;17.48;4.78;;;;;;;29.00;45.97;100095.38;4955663;29;20035;-75
2021/06/29 05:03:41;;;;;;;12.40;4.43;;;;;;;29.40;45.23;100089.84;4939629;29;20035;-72
2021/06/29 05:06:07;;;;;;;16.98;4.88;;;;;;;30.17;43.90;100096.50;4955547;29;20098;-73
2021/06/29 05:08:35;;;;;;;16.75;4.85;;;;;;;30.45;41.91;100114.09;4955958;29;20031;-73
2021/06/29 05:11:01;;;;;;;14.18;5.30;;;;;;;30.93;40.77;100108.69;4939839;29;20089;-74
2021/06/29 05:13:27;;;;;;;12.15;4.60;;;;;;;31.42;39.88;100140.53;4939434;29;20031;-74
2021/06/29 05:15:53;;;;;;;19.35;4.78;;;;;;;31.99;38.63;100151.22;4955716;29;20047;-73
2021/06/29 05:18:19;;;;;;;12.80;4.75;;;;;;;32.41;37.80;100152.53;4957160;29;20108;-74
2021/06/29 05:20:45;;;;;;;15.68;5.00;;;;;;;32.52;37.93;100172.75;4939255;29;20483;-74
2021/06/29 05:23:10;;;;;;;13.02;4.68;;;;;;;32.86;36.87;100206.16;4955343;29;20035;-74
2021/06/29 05:25:36;;;;;;;16.67;4.97;;;;;;;32.70;37.75;100235.66;4955167;29;20062;-74
2021/06/29 05:28:03;;;;;;;18.45;5.07;;;;;;;32.08;38.77;100254.63;4939133;29;20094;-73
2021/06/29 05:30:29;;;;;;;20.85;6.82;;;;;;;31.45;40.70;100223.69;4939167;29;20130;-74
2021/06/29 05:32:55;;;;;;;22.08;6.03;;;;;;;31.24;41.46;100222.91;4939654;29;20114;-75
2021/06/29 05:35:21;;;;;;;14.73;4.80;;;;;;;30.29;44.64;100240.94;4939364;29;20110;-74
2021/06/29 05:37:47;;;;;;;13.13;4.75;;;;;;;30.68;44.67;100256.66;4955124;29;20031;-75
2021/06/29 05:40:16;;;;;;;16.83;5.05;;;;;;;30.70;45.88;100254.09;4955297;29;20039;-74
2021/06/29 05:42:41;;;;;;;19.30;5.68;;;;;;;31.14;45.68;100237.94;4954979;29;20119;-74
2021/06/29 05:45:12;;;;;;;12.35;5.05;;;;;;;31.80;43.47;100252.28;4954883;29;20125;-74
2021/06/29 05:47:38;;;;;;;13.07;4.20;;;;;;;32.21;44.21;100274.34;4954865;29;20082;-73
2021/06/29 05:50:05;;;;;;;21.15;5.20;;;;;;;32.61;43.56;100273.34;4955054;29;20031;-74
2021/06/29 05:52:31;;;;;;;12.20;3.95;;;;;;;32.80;43.63;100280.25;4956653;29;20035;-75
2021/06/29 05:54:57;;;;;;;14.02;4.60;;;;;;;33.08;43.16;100279.66;4954791;29;20046;-74
2021/06/29 05:57:23;;;;;;;12.88;5.68;;;;;;;33.10;42.55;100269.16;4953510;28;20047;-74
2021/06/29 05:59:49;;;;;;;19.67;7.30;;;;;;;32.55;41.86;100281.16;4954558;29;20031;-75
2021/06/29 06:02:15;;;;;;;20.90;7.03;;;;;;;31.11;45.56;100293.53;4955145;29;20041;-75
2021/06/29 06:04:41;;;;;;;18.70;6.28;;;;;;;29.70;47.67;100294.16;4954447;29;20039;-74
2021/06/29 06:07:06;;;;;;;18.25;6.43;;;;;;;28.67;49.64;100294.56;4954995;29;20031;-74
2021/06/29 06:09:33;;;;;;;18.45;6.05;;;;;;;28.45;50.40;100285.47;4954354;29;20031;-74
2021/06/29 06:12:00;;;;;;;16.83;7.70;;;;;;;28.56;50.31;100282.88;4938998;29;20046;-74
2021/06/29 06:14:26;;;;;;;23.27;5.55;;;;;;;27.99;51.54;100297.03;4954772;29;20117;-73
2021/06/29 06:16:51;;;;;;;17.73;6.57;;;;;;;28.59;50.22;100275.38;4954842;29;20410;-74
2021/06/29 06:19:17;;;;;;;17.55;5.70;;;;;;;28.28;50.68;100272.78;4954311;29;20034;-73
2021/06/29 06:21:43;;;;;;;16.23;5.78;;;;;;;28.52;50.31;100275.75;4954061;29;20471;-72
2021/06/29 06:24:09;;;;;;;16.52;5.75;;;;;;;29.16;49.08;100275.34;4953915;29;20124;-73
2021/06/29 06:26:34;;;;;;;13.52;5.70;;;;;;;29.24;49.20;100267.94;4954169;29;20499;-73
2021/06/29 06:29:00;;;;;;;14.68;5.53;;;;;;;29.28;49.07;100279.22;4937969;29;20058;-72
2021/06/29 06:31:26;;;;;;;20.38;6.03;;;;;;;29.51;48.59;100287.00;4953687;29;20129;-72
2021/06/29 06:33:51;;;;;;;14.32;5.28;;;;;;;29.75;47.60;100282.00;4953825;29;20108;-73
2021/06/29 06:36:17;;;;;;;23.77;6.80;;;;;;;29.37;48.41;100282.03;4953881;29;20039;-73
2021/06/29 06:38:42;;;;;;;20.58;6.15;;;;;;;29.68;48.33;100302.47;4937756;29;20034;-73
2021/06/29 06:41:13;;;;;;;19.33;5.80;;;;;;;31.09;45.07;100296.91;4953761;29;20031;-76
2021/06/29 06:43:39;;;;;;;19.75;6.32;;;;;;;31.61;43.75;100282.66;4937755;29;20042;-74
2021/06/29 06:46:08;;;;;;;15.35;4.80;;;;;;;32.07;42.98;100276.06;4953356;29;20035;-74
2021/06/29 06:48:34;;;;;;;31.20;7.00;;;;;;;32.01;43.41;100278.91;4937413;29;20113;-74
2021/06/29 06:50:59;;;;;;;13.70;5.18;;;;;;;32.06;42.99;100271.59;4938082;29;20058;-75
2021/06/29 06:53:25;;;;;;;15.80;5.90;;;;;;;32.93;41.76;100271.19;4954023;29;20482;-77
2021/06/29 06:55:50;;;;;;;20.13;5.78;;;;;;;31.99;43.66;100274.94;4953577;29;20059;-75
2021/06/29 06:58:16;;;;;;;17.40;6.25;;;;;;;31.77;44.21;100270.53;4953815;29;20312;-76
2021/06/29 07:00:41;;;;;;;24.90;6.15;;;;;;;31.31;45.22;100284.94;4954400;29;20059;-74
2021/06/29 07:03:07;;;;;;;13.23;5.10;;;;;;;32.10;43.76;100271.38;4953611;29;20023;-74
2021/06/29 07:05:33;;;;;;;17.20;5.95;;;;;;;32.12;43.82;100249.44;4953570;29;20027;-75
2021/06/29 07:07:59;;;;;;;16.70;5.80;;;;;;;31.98;44.53;100238.84;4957734;28;20078;-75
2021/06/29 07:10:25;;;;;;;19.58;5.30;;;;;;;31.46;45.50;100247.47;4944243;29;20441;-75
2021/06/29 07:12:51;;;;;;;18.42;5.60;;;;;;;32.21;43.94;100251.31;4960296;28;20027;-75
2021/06/29 07:15:17;;;;;;;18.67;5.10;;;;;;;32.26;44.40;100247.69;4959982;28;20536;-73
2021/06/29 07:17:42;;;;;;;19.65;5.15;;;;;;;32.34;44.02;100238.06;4959851;28;20039;-75
2021/06/29 07:20:09;;;;;;;16.23;5.18;;;;;;;32.74;43.37;100212.38;4942908;29;20027;-75
2021/06/29 07:22:36;;;;;;;14.93;5.85;;;;;;;31.71;45.26;100217.13;4959645;28;20031;-75
2021/06/29 07:25:05;;;;;;;17.27;6.07;;;;;;;31.07;46.69;100212.53;4959636;28;20039;-74
2021/06/29 07:27:30;;;;;;;19.05;5.22;;;;;;;30.82;47.52;100208.28;4943979;29;20051;-73
2021/06/29 07:29:56;;;;;;;18.15;5.63;;;;;;;30.89;46.85;100202.88;4959852;28;20038;-75
2021/06/29 07:32:23;;;;;;;17.27;5.80;;;;;;;31.25;46.43;100213.00;4959799;29;20042;-75
2021/06/29 07:34:49;;;;;;;17.55;5.00;;;;;;;31.46;44.61;100207.22;4960066;29;20101;-75
2021/06/29 07:37:15;;;;;;;15.00;4.93;;;;;;;32.29;42.62;100201.41;4959768;29;20441;-74
2021/06/29 07:39:40;;;;;;;10.60;4.38;;;;;;;33.35;40.58;100186.69;4959738;28;20031;-74
2021/06/29 07:42:06;;;;;;;12.63;5.22;;;;;;;33.72;41.04;100179.94;4960160;28;20039;-75
2021/06/29 07:44:32;;;;;;;15.52;5.10;;;;;;;32.79;41.32;100174.97;4959248;29;20370;-75
2021/06/29 07:46:58;;;;;;;20.63;5.10;;;;;;;32.25;43.04;100169.19;4943613;29;20125;-74
2021/06/29 07:49:25;;;;;;;14.27;5.15;;;;;;;32.77;42.52;100154.53;4959765;29;20042;-75
2021/06/29 07:51:52;;;;;;;13.43;4.97;;;;;;;33.62;40.12;100169.97;4943699;29;20024;-74
2021/06/29 07:54:18;;;;;;;13.05;4.90;;;;;;;34.80;37.70;100161.88;4959715;28;20034;-73
2021/06/29 07:56:44;;;;;;;20.45;6.85;;;;;;;35.09;37.52;100162.53;4959434;29;20054;-76
2021/06/29 07:59:10;;;;;;;18.02;6.25;;;;;;;34.99;37.48;100156.28;4960719;29;20098;-75
2021/06/29 08:01:35;;;;;;;14.73;6.20;;;;;;;34.82;38.59;100150.56;4943594;29;20062;-74
2021/06/29 08:04:01;;;;;;;15.73;6.20;;;;;;;34.50;36.84;100172.50;4959652;28;20090;-74
2021/06/29 08:06:27;;;;;;;14.23;5.72;;;;;;;33.61;37.50;100177.84;4959432;28;20031;-74
2021/06/29 08:08:52;;;;;;;19.25;5.18;;;;;;;34.01;35.63;100210.38;4959559;28;20082;-76
2021/06/29 08:11:18;;;;;;;13.55;4.05;;;;;;;34.48;34.58;100227.94;4959593;29;20035;-74
2021/06/29 08:13:44;;;;;;;18.08;4.75;;;;;;;35.52;33.37;100232.22;4959599;29;20051;-74
2021/06/29 08:16:09;;;;;;;23.38;5.25;;;;;;;36.28;32.46;100227.69;4959698;29;20031;-77
2021/06/29 08:18:39;;;;;;;19.70;5.35;;;;;;;37.22;31.47;100218.44;4958723;28;20390;-73
2021/06/29 08:21:06;;;;;;;21.08;6.35;;;;;;;37.00;29.66;100215.84;4956882;29;20039;-74
2021/06/29 08:23:31;;;;;;;16.48;5.03;;;;;;;36.27;30.24;100225.31;4957523;29;20470;-74
2021/06/29 08:25:57;;;;;;;16.60;5.32;;;;;;;36.31;31.59;100211.31;4940644;29;20038;-76
2021/06/29 08:28:23;;;;;;;18.13;5.50;;;;;;;35.47;31.98;100188.88;4956273;29;20035;-76
2021/06/29 08:30:51;;;;;;;17.10;5.75;;;;;;;35.07;33.35;100147.84;4956153;29;20035;-75
2021/06/29 08:33:20;;;;;;;16.05;4.43;;;;;;;34.24;34.94;100164.94;4956679;29;20027;-74
2021/06/29 08:35:47;;;;;;;22.23;5.47;;;;;;;33.89;35.41;100168.38;4956004;29;20123;-74
2021/06/29 08:38:13;;;;;;;13.77;5.75;;;;;;;33.88;36.02;100161.03;4956526;29;20034;-75
2021/06/29 08:40:40;;;;;;;16.52;5.90;;;;;;;32.48;39.75;100140.53;4956378;29;20039;-76
2021/06/29 08:43:07;;;;;;;16.25;5.93;;;;;;;32.58;39.67;100134.03;4939704;29;20019;-74
2021/06/29 08:45:35;;;;;;;16.00;4.70;;;;;;;32.71;40.56;100122.06;4956414;29;20486;-74
2021/06/29 08:48:02;;;;;;;18.90;4.80;;;;;;;31.64;43.07;100108.28;4957119;29;20475;-74
2021/06/29 08:50:32;;;;;;;22.27;5.43;;;;;;;31.80;42.41;100107.63;4955873;29;20470;-75
2021/06/29 08:53:02;;;;;;;13.95;4.78;;;;;;;32.76;40.30;100101.13;4939885;29;20143;-73
2021/06/29 08:55:40;;;;;;;21.70;5.35;;;;;;;33.19;39.73;100118.25;4939785;29;20070;-73
2021/06/29 08:58:06;;;;;;;21.02;5.70;;;;;;;32.92;39.38;100108.25;4940333;29;20374;-75
2021/06/29 09:00:32;;;;;;;17.90;5.18;;;;;;;33.37;38.95;100091.78;4939787;29;20039;-74
2021/06/29 09:02:57;;;;;;;20.77;6.28;;;;;;;33.43;36.86;100070.84;4955412;28;20027;-76
2021/06/29 09:05:26;;;;;;;19.58;5.18;;;;;;;33.42;36.31;100046.22;4956182;29;20086;-74
2021/06/29 09:08:20;;;;;;;16.38;6.30;;;;;;;33.19;36.89;100042.53;4939502;29;20524;-74
2021/06/29 09:11:12;;;;;;;17.00;4.45;;;;;;;32.70;37.30;100034.03;4953819;29;20134;-74
2021/06/29 09:13:42;;;;;;;15.73;5.10;;;;;;;32.60;37.90;100041.38;4955748;29;20431;-74
2021/06/29 09:16:09;;;;;;;19.58;5.32;;;;;;;32.52;37.85;100043.97;4955803;29;20473;-74
2021/06/29 09:18:40;;;;;;;19.63;5.15;;;;;;;31.95;37.92;100038.44;4955724;29;20094;-74
2021/06/29 09:21:09;;;;;;;10.95;4.20;;;;;;;31.66;38.21;100011.59;4938980;29;20031;-75
2021/06/29 09:23:48;;;;;;;10.95;4.30;;;;;;;31.78;38.17;100030.47;4955621;29;20027;-74
2021/06/29 09:26:16;;;;;;;14.73;5.45;;;;;;;32.10;37.70;100026.75;4956850;29;20027;-74
2021/06/29 09:28:48;;;;;;;23.13;5.72;;;;;;;32.41;37.53;100017.22;4955298;29;20200;-74
2021/06/29 09:31:19;;;;;;;11.30;3.83;;;;;;;32.93;36.67;100023.38;4938260;29;20031;-74
2021/06/29 09:34:10;;;;;;;12.05;4.55;;;;;;;33.59;35.70;100027.56;4939092;29;20039;-73
2021/06/29 09:36:42;;;;;;;15.43;5.03;;;;;;;33.93;35.82;100020.91;4955147;29;20127;-73
2021/06/29 09:39:13;;;;;;;24.02;4.85;;;;;;;34.14;33.87;100010.63;4954885;29;20032;-75
2021/06/29 09:41:41;;;;;;;16.80;4.72;;;;;;;33.88;34.67;100020.44;4956900;29;20028;-77
2021/06/29 09:44:12;;;;;;;24.73;5.18;;;;;;;33.98;32.80;100020.16;4954996;29;20086;-74
2021/06/29 09:46:40;;;;;;;28.27;5.85;;;;;;;33.31;34.52;100023.91;4954927;29;20035;-75
2021/06/29 09:49:13;;;;;;;21.60;5.75;;;;;;;33.37;35.32;100004.50;4938995;29;20023;-74
2021/06/29 09:51:39;;;;;;;18.85;5.20;;;;;;;33.74;34.43;99998.44;4956053;29;20546;-74
2021/06/29 09:54:07;;;;;;;19.60;4.68;;;;;;;34.31;33.17;99993.25;4955374;29;20504;-73
2021/06/29 09:56:39;;;;;;;16.85;4.03;;;;;;;34.21;34.02;100009.31;4938561;29;20058;-74
2021/06/29 09:59:14;;;;;;;17.75;5.07;;;;;;;33.88;34.64;99997.34;4955839;29;20479;-76
2021/06/29 10:01:40;;;;;;;22.13;5.40;;;;;;;34.29;34.10;99998.75;4938808;29;20030;-74
2021/06/29 10:04:06;;;;;;;14.55;4.15;;;;;;;35.04;32.37;99995.69;4953940;29;20031;-74
2021/06/29 10:06:37;;;;;;;14.77;4.47;;;;;;;34.96;32.55;100000.50;4953987;29;20031;-75
2021/06/29 10:09:06;;;;;;;14.38;4.55;;;;;;;35.29;31.60;100000.19;4937561;29;20083;-75
2021/06/29 10:11:52;;;;;;;16.67;4.25;;;;;;;35.29;31.42;100017.56;4953765;29;20075;-77
2021/06/29 10:14:21;;;;;;;16.45;4.20;;;;;;;35.27;31.68;100011.53;4938761;29;20394;-73
2021/06/29 10:16:55;;;;;;;12.20;4.30;;;;;;;35.85;30.71;100007.53;4954464;29;20027;-73
2021/06/29 10:19:49;;;;;;;16.45;4.40;;;;;;;35.99;29.03;100009.25;4955947;29;20027;-77
2021/06/29 10:22:17;;;;;;;15.35;4.43;;;;;;;36.01;29.61;99995.03;4956110;29;20475;-75
2021/06/29 10:24:47;;;;;;;18.08;4.60;;;;;;;35.16;31.25;99988.50;4938385;29;20055;-80
2021/06/29 10:27:13;;;;;;;13.23;4.40;;;;;;;35.04;31.60;99981.22;4954251;29;20085;-73
2021/06/29 10:29:39;;;;;;;17.20;4.85;;;;;;;35.26;32.02;99978.13;4954232;29;20130;-71
2021/06/29 10:32:07;;;;;;;19.15;5.10;;;;;;;34.97;30.96;99970.28;4954742;29;20051;-72
2021/06/29 10:34:38;;;;;;;15.18;3.50;;;;;;;35.26;31.65;99960.78;4953958;29;20038;-70
2021/06/29 10:37:04;;;;;;;22.30;4.82;;;;;;;35.01;32.00;99962.09;4954089;29;20098;-74
2021/06/29 10:39:32;;;;;;;21.85;5.03;;;;;;;35.40;31.00;99948.03;4954134;29;20027;-74
2021/06/29 10:42:06;;;;;;;11.90;3.83;;;;;;;35.25;31.59;99938.97;4954013;28;20173;-73
2021/06/29 10:44:38;;;;;;;15.85;4.95;;;;;;;35.78;31.63;99948.16;4938905;29;20102;-73
2021/06/29 10:47:39;;;;;;;19.38;4.50;;;;;;;35.77;30.68;99949.47;4954135;29;20039;-73
2021/06/29 10:50:19;;;;;;;12.30;4.00;;;;;;;36.10;30.46;99951.19;4937949;29;20031;-72
2021/06/29 10:52:45;;;;;;;16.60;4.63;;;;;;;36.65;28.80;99953.88;4954178;29;20031;-73
2021/06/29 10:55:27;;;;;;;13.98;4.07;;;;;;;36.67;27.95;99971.47;4938285;29;20086;-73
2021/06/29 10:58:02;;;;;;;17.55;4.53;;;;;;;37.20;27.66;99962.97;4954383;29;20139;-73
2021/06/29 11:00:33;;;;;;;20.23;4.20;;;;;;;36.81;26.62;99973.09;4954151;29;20437;-70
2021/06/29 11:03:11;;;;;;;14.82;4.18;;;;;;;36.37;27.49;99972.41;4938001;29;20031;-72
2021/06/29 11:05:41;;;;;;;14.73;4.75;;;;;;;36.71;27.18;99969.06;4954209;29;20031;-72
2021/06/29 11:08:10;;;;;;;12.95;3.97;;;;;;;36.45;27.02;99958.91;4953964;29;20093;-72
2021/06/29 11:10:37;;;;;;;14.20;4.07;;;;;;;36.63;25.58;99948.59;4937929;29;20041;-73
2021/06/29 11:13:05;;;;;;;19.60;4.30;;;;;;;36.61;25.84;99948.38;4953895;29;20028;-72
2021/06/29 11:15:57;;;;;;;13.90;4.40;;;;;;;36.88;25.43;99957.19;4953968;29;20035;-73
2021/06/29 11:18:35;;;;;;;18.35;3.83;;;;;;;36.50;24.77;99956.47;4953888;29;20035;-72
2021/06/29 11:21:04;;;;;;;16.77;3.58;;;;;;;36.78;25.04;99939.41;4937455;29;20027;-73
2021/06/29 11:23:32;;;;;;;21.45;4.50;;;;;;;36.45;26.87;99940.72;4937520;29;20394;-73
2021/06/29 11:26:18;;;;;;;26.55;4.93;;;;;;;36.28;27.12;99955.44;4953501;29;20034;-72
2021/06/29 11:28:51;;;;;;;23.75;6.13;;;;;;;35.83;26.62;99949.41;4953655;29;20118;-72
2021/06/29 11:31:20;;;;;;;20.80;4.93;;;;;;;35.77;26.73;99923.44;4954126;29;20031;-72